createdAt,value
2018-05-15T00:00:08.171Z,22.17
2018-05-15T00:02:35.993Z,6.00
2018-05-15T00:05:04.756Z,6.33
2018-05-15T00:07:32.096Z,7.00
2018-05-15T00:09:59.382Z,13.93
2018-05-15T00:12:26.739Z,5.97
2018-05-15T00:14:54.060Z,11.33
2018-05-15T00:17:21.403Z,10.20
2018-05-15T00:19:48.680Z,7.30
2018-05-15T00:22:15.981Z,11.83
2018-05-15T00:24:43.321Z,8.33
2018-05-15T00:27:10.708Z,14.83
2018-05-15T00:29:38.037Z,13.20
2018-05-15T00:32:05.503Z,12.60
2018-05-15T00:34:32.997Z,14.37
2018-05-15T00:37:00.418Z,12.53
2018-05-15T00:39:28.027Z,14.73
2018-05-15T00:41:55.493Z,18.13
2018-05-15T00:44:22.852Z,15.73
2018-05-15T00:46:50.125Z,18.50
2018-05-15T00:49:17.472Z,16.60
2018-05-15T00:51:44.774Z,17.93
2018-05-15T00:54:12.272Z,21.90
2018-05-15T00:56:39.777Z,20.83
2018-05-15T00:59:07.535Z,18.83
2018-05-15T01:01:36.242Z,17.90
2018-05-15T01:04:03.616Z,18.23
2018-05-15T01:06:31.026Z,19.87
2018-05-15T01:08:58.443Z,19.87
2018-05-15T01:11:25.828Z,21.23
2018-05-15T01:13:53.128Z,20.13
2018-05-15T01:16:20.408Z,23.67
2018-05-15T01:18:47.720Z,26.10
2018-05-15T01:21:14.992Z,17.37
2018-05-15T01:23:42.311Z,19.23
2018-05-15T01:26:09.746Z,17.63
2018-05-15T01:28:37.089Z,19.33
2018-05-15T01:31:04.706Z,19.50
2018-05-15T01:33:32.072Z,25.03
2018-05-15T01:35:59.385Z,16.93
2018-05-15T01:38:26.846Z,19.07
2018-05-15T01:40:54.217Z,18.87
2018-05-15T01:43:21.509Z,18.83
2018-05-15T01:45:49.517Z,19.37
2018-05-15T01:48:16.826Z,20.00
2018-05-15T01:50:44.125Z,25.00
2018-05-15T01:53:13.606Z,23.97
2018-05-15T01:55:40.981Z,23.17
2018-05-15T01:58:08.389Z,21.83
2018-05-15T02:00:35.825Z,17.10
2018-05-15T02:03:03.167Z,21.67
2018-05-15T02:05:30.489Z,21.73
2018-05-15T02:07:58.091Z,24.50
2018-05-15T02:10:25.507Z,26.53
2018-05-15T02:12:52.830Z,24.37
2018-05-15T02:15:20.140Z,24.43
2018-05-15T02:17:47.476Z,26.93
2018-05-15T02:20:14.862Z,23.97
2018-05-15T02:22:42.449Z,27.63
2018-05-15T02:25:09.790Z,25.60
2018-05-15T02:27:37.906Z,29.67
2018-05-15T02:30:06.571Z,30.97
2018-05-15T02:32:35.106Z,30.37
2018-05-15T02:35:02.391Z,26.73
2018-05-15T02:37:29.704Z,27.10
2018-05-15T02:39:57.025Z,23.70
2018-05-15T02:42:24.332Z,23.07
2018-05-15T02:44:51.678Z,29.00
2018-05-15T02:47:18.961Z,27.00
2018-05-15T02:49:46.274Z,26.47
2018-05-15T02:52:13.568Z,29.70
2018-05-15T02:54:41.130Z,28.03
2018-05-15T02:57:08.695Z,26.33
2018-05-15T02:59:36.572Z,27.83
2018-05-15T03:02:04.375Z,40.13
2018-05-15T03:04:31.903Z,33.77
2018-05-15T03:06:59.193Z,25.20
2018-05-15T03:09:26.550Z,30.73
2018-05-15T03:11:54.113Z,33.27
2018-05-15T03:14:21.417Z,34.30
2018-05-15T03:16:48.708Z,37.47
2018-05-15T03:19:16.003Z,31.77
2018-05-15T03:21:43.317Z,38.23
2018-05-15T03:24:10.659Z,37.63
2018-05-15T03:26:38.219Z,40.77
2018-05-15T03:29:05.675Z,45.17
2018-05-15T03:31:32.997Z,42.87
2018-05-15T03:34:00.543Z,41.73
2018-05-15T03:36:27.927Z,39.77
2018-05-15T03:38:55.437Z,39.70
2018-05-15T03:41:22.721Z,43.20
2018-05-15T03:43:50.074Z,49.07
2018-05-15T03:46:17.391Z,40.40
2018-05-15T03:48:44.810Z,40.87
2018-05-15T03:51:12.411Z,34.43
2018-05-15T03:53:40.065Z,30.50
2018-05-15T03:56:07.647Z,38.17
2018-05-15T03:58:35.129Z,42.80
2018-05-15T04:01:08.239Z,37.87
2018-05-15T04:03:42.725Z,33.93
2018-05-15T04:06:17.154Z,35.23
2018-05-15T04:08:44.582Z,36.27
2018-05-15T04:11:12.722Z,31.73
2018-05-15T04:13:40.249Z,32.90
2018-05-15T04:16:08.294Z,29.63
2018-05-15T04:18:35.760Z,33.40
2018-05-15T04:21:03.130Z,29.53
2018-05-15T04:23:30.910Z,27.93
2018-05-15T04:25:58.208Z,28.67
2018-05-15T04:28:26.861Z,24.13
2018-05-15T04:30:54.133Z,23.30
2018-05-15T04:33:21.470Z,31.63
2018-05-15T04:35:49.025Z,21.60
2018-05-15T04:38:16.322Z,19.50
2018-05-15T04:40:43.881Z,17.17
2018-05-15T04:43:11.349Z,13.93
2018-05-15T04:45:38.679Z,19.23
2018-05-15T04:48:06.416Z,16.60
2018-05-15T04:50:34.478Z,16.43
2018-05-15T04:53:01.910Z,17.13
2018-05-15T04:55:29.203Z,19.27
2018-05-15T04:57:56.578Z,11.87
2018-05-15T05:00:23.983Z,13.37
2018-05-15T05:02:51.265Z,21.63
2018-05-15T05:05:18.554Z,13.30
2018-05-15T05:07:45.937Z,22.37
2018-05-15T05:10:13.263Z,10.30
2018-05-15T05:12:40.622Z,22.60
2018-05-15T05:15:08.666Z,11.30
2018-05-15T05:17:36.207Z,15.00
2018-05-15T05:20:03.530Z,11.50
2018-05-15T05:22:31.834Z,12.73
2018-05-15T05:24:59.146Z,16.60
2018-05-15T05:27:28.041Z,12.63
2018-05-15T05:29:55.438Z,20.33
2018-05-15T05:32:22.751Z,11.70
2018-05-15T05:34:50.057Z,11.93
2018-05-15T05:37:17.337Z,12.13
2018-05-15T05:39:44.621Z,13.67
2018-05-15T05:42:11.972Z,10.70
2018-05-15T05:44:39.292Z,11.90
2018-05-15T05:47:06.616Z,14.43
2018-05-15T05:49:36.002Z,12.30
2018-05-15T05:52:03.347Z,12.57
2018-05-15T05:54:30.648Z,11.13
2018-05-15T06:00:00.645Z,14.40
2018-05-15T06:02:27.944Z,17.27
2018-05-15T06:04:56.435Z,16.30
2018-05-15T06:07:23.838Z,11.20
2018-05-15T06:09:51.161Z,16.23
2018-05-15T06:12:18.495Z,9.60
2018-05-15T06:14:45.844Z,13.63
2018-05-15T06:17:13.317Z,11.53
2018-05-15T06:19:40.751Z,11.57
2018-05-15T06:22:08.215Z,18.80
2018-05-15T06:27:12.858Z,9.20
2018-05-15T06:29:40.374Z,9.20
2018-05-15T06:32:07.780Z,10.07
2018-05-15T06:34:35.466Z,10.97
2018-05-15T06:37:02.862Z,13.70
2018-05-15T06:39:30.247Z,11.00
2018-05-15T06:41:57.799Z,14.73
2018-05-15T06:44:25.281Z,21.20
2018-05-15T06:46:52.717Z,9.87
2018-05-15T06:51:55.849Z,11.63
2018-05-15T06:54:23.233Z,17.03
2018-05-15T06:56:51.458Z,16.93
2018-05-15T06:59:19.215Z,10.33
2018-05-15T07:01:46.741Z,13.43
2018-05-15T07:04:14.068Z,15.00
2018-05-15T07:06:41.628Z,11.03
2018-05-15T07:09:22.694Z,10.90
2018-05-15T07:11:50.101Z,8.93
2018-05-15T07:14:17.494Z,9.37
2018-05-15T07:16:44.995Z,12.77
2018-05-15T07:19:12.685Z,19.43
2018-05-15T07:21:40.305Z,10.50
2018-05-15T07:24:07.951Z,9.90
2018-05-15T07:26:35.692Z,9.97
2018-05-15T07:29:03.320Z,9.43
2018-05-15T07:31:30.936Z,14.07
2018-05-15T07:44:40.666Z,13.60
2018-05-15T07:47:08.094Z,13.47
2018-05-15T07:49:35.966Z,11.80
2018-05-15T07:54:35.179Z,11.23
2018-05-15T07:57:02.723Z,11.33
2018-05-15T08:02:01.781Z,19.53
2018-05-15T08:09:32.375Z,12.10
2018-05-15T08:11:59.955Z,19.47
2018-05-15T08:14:28.188Z,11.90
2018-05-15T08:16:56.198Z,9.50
2018-05-15T08:19:23.767Z,19.00
2018-05-15T08:21:51.090Z,13.57
2018-05-15T08:24:18.789Z,9.73
2018-05-15T08:29:20.890Z,12.87
2018-05-15T08:31:48.348Z,13.10
2018-05-15T08:34:15.758Z,14.53
2018-05-15T08:36:43.471Z,20.00
2018-05-15T08:39:11.064Z,15.00
2018-05-15T08:46:47.573Z,12.47
2018-05-15T08:49:15.134Z,12.50
2018-05-15T08:51:42.983Z,14.27
2018-05-15T08:54:11.067Z,14.37
2018-05-15T08:56:38.567Z,13.83
2018-05-15T09:01:39.578Z,12.67
2018-05-15T09:06:52.026Z,15.03
2018-05-15T09:11:51.897Z,16.03
2018-05-15T09:14:19.984Z,21.97
2018-05-15T09:16:47.756Z,13.43
2018-05-15T09:19:15.666Z,12.13
2018-05-15T09:21:44.645Z,17.13
2018-05-15T09:24:12.171Z,17.03
2018-05-15T09:36:57.137Z,15.40
2018-05-15T09:39:24.599Z,16.33
2018-05-15T09:41:52.072Z,19.03
2018-05-15T09:44:19.462Z,17.20
2018-05-15T09:47:00.144Z,13.33
2018-05-15T09:49:27.578Z,19.53
2018-05-15T09:51:55.107Z,19.83
2018-05-15T09:54:23.219Z,13.70
2018-05-15T09:56:50.555Z,13.70
2018-05-15T09:59:22.042Z,15.90
2018-05-15T10:01:50.347Z,13.80
2018-05-15T10:04:17.655Z,18.00
2018-05-15T10:06:45.015Z,13.53
2018-05-15T10:09:12.512Z,13.70
2018-05-15T10:11:40.459Z,22.90
2018-05-15T10:19:42.836Z,21.27
2018-05-15T10:24:43.433Z,20.50
2018-05-15T10:29:42.983Z,22.87
2018-05-15T10:32:11.110Z,24.27
2018-05-15T10:34:38.907Z,32.80
2018-05-15T10:37:06.583Z,24.67
2018-05-15T10:39:34.879Z,29.40
2018-05-15T10:42:02.302Z,27.10
2018-05-15T10:44:33.305Z,32.50
2018-05-15T10:47:00.770Z,19.17
2018-05-15T10:49:28.732Z,16.57
2018-05-15T10:51:56.064Z,31.70
2018-05-15T10:54:23.554Z,21.97
2018-05-15T10:56:50.898Z,27.07
2018-05-15T10:59:18.235Z,25.70
2018-05-15T11:01:45.925Z,24.30
2018-05-15T11:04:13.442Z,22.87
2018-05-15T11:06:42.398Z,40.07
2018-05-15T11:09:09.871Z,28.93
2018-05-15T11:11:37.687Z,19.77
2018-05-15T11:14:05.992Z,18.97
2018-05-15T11:16:34.375Z,19.87
2018-05-15T11:19:07.695Z,28.80
2018-05-15T11:21:41.244Z,18.07
2018-05-15T11:24:23.696Z,18.77
2018-05-15T11:26:51.338Z,20.60
2018-05-15T11:29:19.013Z,26.77
2018-05-15T11:31:46.687Z,27.27
2018-05-15T11:34:14.083Z,21.90
2018-05-15T11:36:41.744Z,21.63
2018-05-15T11:39:10.098Z,27.70
2018-05-15T11:41:38.240Z,23.83
2018-05-15T11:46:39.907Z,20.07
2018-05-15T11:49:08.412Z,26.17
2018-05-15T11:51:36.533Z,25.97
2018-05-15T11:54:03.798Z,23.80
2018-05-15T11:56:31.619Z,25.33
2018-05-15T12:04:02.905Z,21.50
2018-05-15T12:06:30.508Z,22.83
2018-05-15T12:08:57.841Z,29.53
2018-05-15T12:11:25.385Z,24.10
2018-05-15T12:13:52.714Z,28.07
2018-05-15T12:16:20.115Z,17.90
2018-05-15T12:21:21.098Z,18.20
2018-05-15T12:31:25.757Z,19.10
2018-05-15T12:33:53.079Z,16.17
2018-05-15T12:36:20.926Z,16.87
2018-05-15T12:38:48.310Z,19.73
2018-05-15T12:41:15.695Z,20.73
2018-05-15T12:43:43.544Z,15.87
2018-05-15T12:46:11.019Z,19.10
2018-05-15T12:48:39.160Z,17.73
2018-05-15T12:51:08.361Z,18.10
2018-05-15T12:53:35.994Z,15.90
2018-05-15T12:56:03.826Z,12.13
2018-05-15T12:58:31.330Z,9.87
2018-05-15T13:00:59.141Z,16.10
2018-05-15T13:03:26.554Z,13.00
2018-05-15T13:05:54.048Z,13.77
2018-05-15T13:08:22.027Z,11.77
2018-05-15T13:13:24.411Z,13.47
2018-05-15T13:15:51.920Z,11.97
2018-05-15T13:18:19.277Z,20.83
2018-05-15T13:20:46.676Z,16.63
2018-05-15T13:25:45.790Z,15.03
2018-05-15T13:28:13.299Z,12.70
2018-05-15T13:30:40.918Z,11.67
2018-05-15T13:35:41.347Z,14.40
2018-05-15T13:38:09.698Z,13.87
2018-05-15T13:48:14.668Z,16.87
2018-05-15T13:50:43.256Z,15.90
2018-05-15T13:53:12.765Z,16.20
2018-05-15T13:58:17.102Z,14.53
2018-05-15T14:05:48.317Z,19.87
2018-05-15T14:08:16.438Z,14.60
2018-05-15T14:15:51.916Z,11.63
2018-05-15T14:18:19.956Z,19.30
2018-05-15T14:20:47.605Z,12.43
2018-05-15T14:23:15.509Z,19.73
2018-05-15T14:28:16.093Z,14.77
2018-05-15T14:30:44.918Z,12.17
2018-05-15T14:33:12.394Z,10.93
2018-05-15T14:35:40.268Z,10.30
2018-05-15T14:38:08.129Z,11.87
2018-05-15T14:40:36.411Z,11.10
2018-05-15T14:45:41.379Z,8.33
2018-05-15T14:48:08.859Z,7.43
2018-05-15T14:53:14.775Z,8.00
2018-05-15T14:55:43.346Z,10.00
2018-05-15T15:00:43.000Z,20.80
2018-05-15T15:03:12.712Z,56.37
2018-05-15T15:05:40.478Z,31.63
2018-05-15T15:08:09.835Z,8.70
2018-05-15T15:10:38.044Z,12.63
2018-05-15T15:13:06.091Z,11.40
2018-05-15T15:15:33.528Z,12.87
2018-05-15T15:18:01.154Z,12.43
2018-05-15T15:20:28.549Z,8.90
2018-05-15T15:22:59.558Z,9.57
2018-05-15T15:25:26.943Z,11.40
2018-05-15T15:33:00.869Z,12.53
2018-05-15T15:38:01.413Z,10.33
2018-05-15T15:40:29.704Z,11.10
2018-05-15T15:45:28.757Z,11.67
2018-05-15T15:47:56.258Z,7.33
2018-05-15T15:50:23.825Z,8.33
2018-05-15T15:52:51.424Z,10.60
2018-05-15T15:55:18.811Z,10.70
2018-05-15T16:00:19.966Z,8.17
2018-05-15T16:05:18.972Z,17.07
2018-05-15T16:07:46.444Z,12.60
2018-05-15T16:10:14.188Z,7.13
2018-05-15T16:12:41.979Z,11.30
2018-05-15T16:17:42.622Z,6.87
2018-05-15T16:20:10.907Z,8.70
2018-05-15T16:22:40.285Z,7.13
2018-05-15T16:25:07.822Z,6.53
2018-05-15T16:27:36.086Z,9.00
2018-05-15T16:30:03.413Z,8.43
2018-05-15T16:35:02.571Z,6.30
2018-05-15T16:37:29.882Z,6.20
2018-05-15T16:39:57.308Z,8.90
2018-05-15T16:42:24.710Z,8.07
2018-05-15T16:47:25.694Z,9.50
2018-05-15T16:49:52.949Z,6.73
2018-05-15T16:52:20.442Z,9.00
2018-05-15T16:54:47.945Z,6.60
2018-05-15T17:05:08.032Z,4.53
2018-05-15T17:10:21.603Z,5.70
2018-05-15T17:18:08.076Z,5.87
2018-05-15T17:20:35.872Z,10.63
2018-05-15T17:23:06.207Z,5.83
2018-05-15T17:25:35.195Z,8.97
2018-05-15T17:30:40.475Z,6.67
2018-05-15T17:35:41.096Z,15.50
2018-05-15T17:38:08.668Z,10.03
2018-05-15T17:48:41.199Z,5.33
2018-05-15T17:57:16.708Z,11.60
2018-05-15T17:59:44.744Z,14.13
2018-05-15T18:04:43.855Z,15.90
2018-05-15T18:07:11.444Z,18.33
2018-05-15T18:09:42.505Z,18.40
2018-05-15T18:14:41.873Z,11.97
2018-05-15T18:17:09.430Z,11.23
2018-05-15T18:19:36.994Z,11.33
2018-05-15T18:22:04.757Z,15.87
2018-05-15T18:24:32.158Z,9.17
2018-05-15T18:26:59.911Z,18.13
2018-05-15T18:29:27.206Z,10.27
2018-05-15T18:31:54.646Z,9.43
2018-05-15T18:34:21.954Z,9.87
2018-05-15T18:36:49.285Z,7.77
2018-05-15T18:39:18.303Z,10.37
2018-05-15T18:41:45.902Z,9.30
2018-05-15T18:44:13.420Z,9.30
2018-05-15T18:46:40.872Z,11.43
2018-05-15T18:49:08.631Z,9.10
2018-05-15T18:51:36.726Z,14.43
2018-05-15T18:54:04.357Z,15.80
2018-05-15T18:56:31.659Z,11.30
2018-05-15T18:58:59.028Z,12.30
2018-05-15T19:01:26.440Z,10.23
2018-05-15T19:03:53.886Z,11.60
2018-05-15T19:06:21.287Z,13.87
2018-05-15T19:08:48.997Z,12.87
2018-05-15T19:11:19.076Z,11.13
2018-05-15T19:13:46.653Z,11.30
2018-05-15T19:16:14.090Z,12.00
2018-05-15T19:18:41.931Z,9.87
2018-05-15T19:21:09.520Z,10.90
2018-05-15T19:23:37.668Z,7.80
2018-05-15T19:26:05.449Z,9.43
2018-05-15T19:28:32.802Z,11.37
2018-05-15T19:31:00.138Z,10.00
2018-05-15T19:33:33.223Z,16.47
2018-05-15T19:36:06.407Z,12.00
2018-05-15T19:38:33.913Z,12.30
2018-05-15T19:41:01.279Z,12.20
2018-05-15T19:43:28.740Z,16.00
2018-05-15T19:45:56.063Z,12.37
2018-05-15T19:48:23.387Z,13.83
2018-05-15T19:50:50.980Z,11.27
2018-05-15T19:53:18.301Z,11.90
2018-05-15T19:55:45.795Z,10.70
2018-05-15T19:58:13.248Z,17.63
2018-05-15T20:08:16.548Z,16.17
2018-05-15T20:10:43.922Z,11.90
2018-05-15T20:15:43.407Z,10.70
2018-05-15T20:18:10.765Z,13.60
2018-05-15T20:20:38.568Z,12.40
2018-05-15T20:23:07.319Z,15.37
2018-05-15T20:25:34.889Z,18.00
2018-05-15T20:28:02.222Z,13.83
2018-05-15T20:30:29.716Z,17.90
2018-05-15T20:32:57.034Z,15.80
2018-05-15T20:35:24.378Z,14.03
2018-05-15T20:37:51.744Z,17.03
2018-05-15T20:40:19.082Z,22.53
2018-05-15T20:42:46.662Z,25.63
2018-05-15T20:45:14.317Z,16.47
2018-05-15T20:47:41.775Z,16.83
2018-05-15T20:50:09.066Z,15.03
2018-05-15T20:52:36.472Z,19.30
2018-05-15T20:55:03.790Z,22.07
2018-05-15T20:57:31.151Z,15.27
2018-05-15T20:59:58.441Z,14.00
2018-05-15T21:02:25.733Z,15.60
2018-05-15T21:04:53.018Z,16.30
2018-05-15T21:07:20.303Z,13.20
2018-05-15T21:09:47.581Z,15.37
2018-05-15T21:12:15.080Z,16.17
2018-05-15T21:14:42.510Z,16.33
2018-05-15T21:17:09.838Z,15.87
2018-05-15T21:19:37.198Z,13.70
2018-05-15T21:22:04.632Z,20.63
2018-05-15T21:24:31.933Z,16.20
2018-05-15T21:26:59.205Z,17.47
2018-05-15T21:29:26.489Z,17.83
2018-05-15T21:31:53.771Z,19.03
2018-05-15T21:34:21.057Z,24.10
2018-05-15T21:36:48.372Z,17.97
2018-05-15T21:39:15.615Z,22.23
2018-05-15T21:41:42.951Z,27.57
2018-05-15T21:44:10.260Z,20.70
2018-05-15T21:46:37.625Z,18.87
2018-05-15T21:49:04.977Z,19.70
2018-05-15T21:51:32.297Z,21.67
2018-05-15T21:53:59.583Z,17.90
2018-05-15T21:56:26.861Z,18.50
2018-05-15T21:58:54.233Z,19.80
2018-05-15T22:01:21.502Z,23.73
2018-05-15T22:03:48.814Z,19.40
2018-05-15T22:06:16.089Z,19.07
2018-05-15T22:08:43.381Z,19.50
2018-05-15T22:11:13.339Z,21.00
2018-05-15T22:13:46.458Z,18.33
2018-05-15T22:16:19.430Z,21.37
2018-05-15T22:18:52.609Z,20.63
2018-05-15T22:21:25.590Z,20.50
2018-05-15T22:23:52.646Z,18.10
2018-05-15T22:26:19.922Z,21.53
2018-05-15T22:28:47.227Z,23.17
2018-05-15T22:31:14.520Z,20.87
2018-05-15T22:33:41.825Z,23.90
2018-05-15T22:36:09.153Z,21.70
2018-05-15T22:38:36.498Z,22.60
2018-05-15T22:41:03.811Z,18.17
2018-05-15T22:43:31.105Z,21.33
2018-05-15T22:45:58.393Z,21.00
2018-05-15T22:48:25.653Z,22.40
2018-05-15T22:50:52.944Z,29.10
2018-05-15T22:55:53.819Z,25.73
2018-05-15T22:58:21.109Z,23.90
2018-05-15T23:00:48.403Z,23.80
2018-05-15T23:03:15.710Z,23.10
2018-05-15T23:05:42.981Z,23.27
2018-05-15T23:08:10.341Z,25.13
2018-05-15T23:10:37.725Z,28.40
2018-05-15T23:13:05.186Z,23.37
2018-05-15T23:15:32.586Z,25.77
2018-05-15T23:17:59.853Z,23.53
2018-05-15T23:20:27.212Z,22.90
2018-05-15T23:22:54.477Z,23.93
2018-05-15T23:25:21.792Z,23.70
2018-05-15T23:27:49.064Z,24.70
2018-05-15T23:30:16.365Z,20.37
2018-05-15T23:32:43.649Z,24.20
2018-05-15T23:35:11.237Z,25.50
2018-05-15T23:37:38.641Z,23.90
2018-05-15T23:40:06.111Z,24.53
2018-05-15T23:42:33.387Z,21.10
2018-05-15T23:45:00.957Z,25.70
2018-05-15T23:47:28.294Z,22.53
2018-05-15T23:49:55.607Z,21.80
2018-05-15T23:52:22.893Z,22.37
2018-05-15T23:54:50.188Z,25.70
2018-05-15T23:57:17.472Z,24.20
2018-05-15T23:59:44.772Z,22.70
